Time;durP1;ratioP1;P1;durP2;ratioP2;P2;SDS_P1;SDS_P2;PMS_P1;PMS_P2;Temp;Humidity;BMP_temperature;BMP_pressure;BME280_temperature;BME280_humidity;BME280_pressure;Samples;Min_cycle;Max_cycle;Signal;HPM_P1;HPM_P2
2022/12/23 00:00:20;;;;;;;4.63;1.30;;;;;;;9.14;100.00;95354.56;5056621;28;20205;-70
2022/12/23 00:02:46;;;;;;;5.33;1.17;;;;;;;9.01;100.00;95354.41;5056592;28;20212;-71
2022/12/23 00:05:13;;;;;;;3.83;0.80;;;;;;;9.03;100.00;95341.91;5055923;28;20208;-72
2022/12/23 00:07:39;;;;;;;2.37;1.23;;;;;;;9.10;100.00;95354.09;5056542;28;20220;-70
2022/12/23 00:10:07;;;;;;;3.13;0.90;;;;;;;9.08;100.00;95345.59;5056510;28;20201;-70
2022/12/23 00:15:19;;;;;;;2.83;0.80;;;;;;;9.18;100.00;95345.28;5056214;28;20210;-70
2022/12/23 00:17:45;;;;;;;1.20;0.93;;;;;;;9.15;100.00;95354.34;5056619;28;20203;-70
2022/12/23 00:20:14;;;;;;;3.50;1.37;;;;;;;9.24;100.00;95349.75;5055936;28;20204;-70
2022/12/23 00:25:39;;;;;;;1.93;0.70;;;;;;;9.18;100.00;95342.66;5055498;28;20247;-69
2022/12/23 00:28:06;;;;;;;1.27;0.93;;;;;;;9.28;100.00;95340.53;5055899;28;20300;-70
2022/12/23 00:30:34;;;;;;;3.20;1.33;;;;;;;9.26;100.00;95326.75;5056210;28;20215;-70
2022/12/23 00:33:01;;;;;;;3.40;1.00;;;;;;;9.07;100.00;95324.75;5056856;28;20204;-70
2022/12/23 00:35:30;;;;;;;3.20;0.90;;;;;;;9.17;100.00;95312.13;5055604;28;20549;-70
2022/12/23 00:37:57;;;;;;;2.20;0.80;;;;;;;9.11;100.00;95308.44;5055502;28;21317;-70
2022/12/23 00:43:09;;;;;;;1.00;0.80;;;;;;;9.24;100.00;95320.84;5037440;28;20251;-70
2022/12/23 00:45:37;;;;;;;2.10;0.80;;;;;;;9.26;100.00;95317.03;5055585;28;20675;-70
2022/12/23 00:51:02;;;;;;;2.03;0.70;;;;;;;9.15;100.00;95324.63;4994011;28;20206;-70
2022/12/23 00:53:30;;;;;;;3.70;0.80;;;;;;;9.23;100.00;95321.88;4993628;28;20217;-70
2022/12/23 00:58:25;;;;;;;1.57;1.00;;;;;;;9.23;100.00;95314.78;5053904;28;20665;-70
2022/12/23 01:06:21;;;;;;;4.00;1.00;;;;;;;9.20;100.00;95306.47;5052580;28;20239;-70
2022/12/23 01:08:48;;;;;;;4.83;1.00;;;;;;;9.17;100.00;95312.13;5053275;28;20224;-70
2022/12/23 01:11:14;;;;;;;3.10;1.50;;;;;;;9.19;100.00;95304.88;5052688;28;20201;-70
2022/12/23 01:13:42;;;;;;;4.33;1.00;;;;;;;9.27;100.00;95304.72;5053036;28;20193;-70
2022/12/23 01:16:11;;;;;;;4.07;0.93;;;;;;;9.27;100.00;95321.28;5052834;28;20215;-70
2022/12/23 01:18:38;;;;;;;3.53;0.73;;;;;;;9.24;100.00;95321.69;5052696;28;20220;-70
2022/12/23 01:21:05;;;;;;;0.50;0.47;;;;;;;9.13;100.00;95327.44;5052887;28;20216;-70
2022/12/23 01:23:32;;;;;;;5.10;1.10;;;;;;;9.19;100.00;95328.53;5052998;28;20204;-70
2022/12/23 01:26:01;;;;;;;2.30;1.07;;;;;;;9.19;100.00;95326.69;5052165;28;20208;-70
2022/12/23 01:28:30;;;;;;;1.63;1.10;;;;;;;9.23;100.00;95325.31;5052679;28;20220;-70
2022/12/23 01:31:00;;;;;;;3.20;1.10;;;;;;;9.27;100.00;95329.16;5052359;28;20584;-70
2022/12/23 01:33:26;;;;;;;2.93;1.13;;;;;;;9.25;100.00;95335.63;5052286;28;20209;-70
2022/12/23 01:35:59;;;;;;;4.23;1.03;;;;;;;9.28;100.00;95330.81;5053071;28;20643;-70
2022/12/23 01:38:26;;;;;;;1.43;1.17;;;;;;;9.35;100.00;95351.88;5051723;28;20232;-70
2022/12/23 01:40:52;;;;;;;3.07;1.20;;;;;;;9.27;100.00;95350.19;5052426;28;20213;-70
2022/12/23 01:43:19;;;;;;;1.97;1.13;;;;;;;9.34;100.00;95347.63;5052443;28;20208;-70
2022/12/23 01:45:46;;;;;;;5.03;0.90;;;;;;;9.34;100.00;95355.50;5052380;28;20201;-70
2022/12/23 01:48:18;;;;;;;0.73;0.70;;;;;;;9.31;100.00;95358.53;5052495;28;20232;-70
2022/12/23 01:50:48;;;;;;;4.37;0.87;;;;;;;9.27;100.00;95346.78;5051966;28;20197;-70
2022/12/23 01:53:18;;;;;;;4.90;1.07;;;;;;;9.24;100.00;95353.22;5053203;28;20208;-72
2022/12/23 01:55:49;;;;;;;2.57;0.97;;;;;;;9.40;100.00;95360.00;5051250;28;20232;-70
2022/12/23 01:58:20;;;;;;;1.77;0.80;;;;;;;9.26;100.00;95366.16;5051458;28;20232;-70
2022/12/23 02:03:43;;;;;;;1.97;0.80;;;;;;;9.37;100.00;95370.91;5051585;28;20284;-70
2022/12/23 02:12:09;;;;;;;2.17;0.80;;;;;;;9.42;100.00;95379.03;5038464;28;20263;-72
2022/12/23 02:17:44;;;;;;;1.73;0.80;;;;;;;9.42;100.00;95384.28;5038557;28;20220;-71
2022/12/23 02:20:36;;;;;;;0.80;0.70;;;;;;;9.40;100.00;95388.94;5038876;28;20247;-71
2022/12/23 02:23:32;;;;;;;3.90;0.90;;;;;;;9.48;100.00;95383.53;5038597;28;20198;-71
2022/12/23 02:26:24;;;;;;;5.60;0.90;;;;;;;9.50;100.00;95387.59;5037553;28;20689;-71
2022/12/23 02:29:12;;;;;;;1.23;1.00;;;;;;;9.60;100.00;95389.88;5038101;28;20232;-71
2022/12/23 02:31:45;;;;;;;3.77;1.10;;;;;;;9.59;100.00;95389.06;5038786;28;20902;-70
2022/12/23 02:34:18;;;;;;;5.63;1.00;;;;;;;9.55;100.00;95397.56;5037839;28;20425;-70
2022/12/23 02:36:50;;;;;;;2.60;0.77;;;;;;;9.62;100.00;95401.03;5037658;28;20209;-70
2022/12/23 02:39:21;;;;;;;3.20;0.67;;;;;;;9.56;100.00;95394.72;5037866;28;20232;-70
2022/12/23 02:41:54;;;;;;;0.60;0.60;;;;;;;9.61;100.00;95392.34;5038808;28;20980;-70
2022/12/23 02:44:29;;;;;;;2.63;0.87;;;;;;;9.65;100.00;95392.75;5036329;28;20197;-70
2022/12/23 02:47:04;;;;;;;1.07;0.80;;;;;;;9.66;100.00;95402.28;5038405;28;20855;-70
2022/12/23 02:49:33;;;;;;;1.37;0.80;;;;;;;9.63;100.00;95402.66;5037896;28;20232;-70
2022/12/23 02:52:05;;;;;;;2.50;1.03;;;;;;;9.65;100.00;95395.38;5037717;28;20197;-70
2022/12/23 02:54:36;;;;;;;1.03;0.63;;;;;;;9.65;100.00;95398.84;5037417;28;20283;-70
2022/12/23 02:57:05;;;;;;;0.83;0.63;;;;;;;9.65;100.00;95396.22;5038467;28;20220;-70
2022/12/23 02:59:40;;;;;;;2.07;0.70;;;;;;;9.72;100.00;95399.69;5037623;28;20239;-70
2022/12/23 03:02:08;;;;;;;0.60;0.60;;;;;;;9.79;100.00;95405.84;5037995;28;20212;-70
2022/12/23 03:04:37;;;;;;;0.40;0.40;;;;;;;9.66;100.00;95394.38;5037802;28;20201;-70
2022/12/23 03:07:05;;;;;;;2.07;0.73;;;;;;;9.66;100.00;95402.28;5037634;28;21442;-70
2022/12/23 03:09:44;;;;;;;3.53;1.00;;;;;;;9.83;100.00;95404.44;5037157;28;20216;-70
2022/12/23 03:12:19;;;;;;;1.00;0.60;;;;;;;9.76;100.00;95408.81;5038014;28;20207;-70
2022/12/23 03:15:01;;;;;;;0.97;0.77;;;;;;;9.83;100.00;95399.97;5036674;28;20200;-70
2022/12/23 03:17:41;;;;;;;0.73;0.70;;;;;;;9.84;100.00;95398.97;5036950;28;20240;-70
2022/12/23 03:20:16;;;;;;;0.80;0.80;;;;;;;9.83;100.00;95399.19;5036328;28;20205;-70
2022/12/23 03:22:50;;;;;;;2.60;0.67;;;;;;;9.85;100.00;95402.41;5037211;28;20204;-70
2022/12/23 03:25:21;;;;;;;0.47;0.47;;;;;;;9.89;100.00;95404.47;5036590;28;20204;-70
2022/12/23 03:27:55;;;;;;;0.60;0.60;;;;;;;9.95;100.00;95416.03;5037606;28;20196;-70
2022/12/23 03:30:23;;;;;;;0.70;0.70;;;;;;;9.89;100.00;95411.53;5035191;28;20204;-70
2022/12/23 03:32:54;;;;;;;0.57;0.57;;;;;;;9.98;100.00;95416.50;5036908;28;20208;-70
2022/12/23 03:35:25;;;;;;;0.40;0.40;;;;;;;9.97;100.00;95421.97;5036528;28;20208;-70
2022/12/23 03:37:54;;;;;;;0.50;0.50;;;;;;;9.93;100.00;95410.19;5037271;28;20221;-70
2022/12/23 03:40:24;;;;;;;0.97;0.50;;;;;;;10.02;100.00;95415.13;5036942;28;20669;-70
2022/12/23 03:42:56;;;;;;;1.90;1.07;;;;;;;10.02;100.00;95419.56;5037467;28;20569;-70
2022/12/23 03:45:31;;;;;;;0.60;0.60;;;;;;;10.08;100.00;95414.34;5037158;28;20205;-70
2022/12/23 03:48:03;;;;;;;2.10;0.60;;;;;;;10.17;100.00;95422.88;5036314;28;20238;-70
2022/12/23 03:50:30;;;;;;;2.30;0.80;;;;;;;10.07;100.00;95428.50;5037292;28;20211;-70
2022/12/23 03:53:00;;;;;;;0.33;0.33;;;;;;;10.11;100.00;95416.59;5037408;28;20205;-70
2022/12/23 03:55:32;;;;;;;0.40;0.40;;;;;;;10.13;100.00;95414.59;5036107;28;20197;-70
2022/12/23 03:58:06;;;;;;;3.17;0.70;;;;;;;10.09;100.00;95425.69;5036744;28;20232;-70
2022/12/23 04:00:37;;;;;;;0.60;0.60;;;;;;;10.10;100.00;95429.94;5036782;28;20205;-70
2022/12/23 04:03:13;;;;;;;1.20;0.60;;;;;;;10.19;100.00;95432.22;5036682;28;20882;-70
2022/12/23 04:05:44;;;;;;;1.30;0.50;;;;;;;10.16;100.00;95429.97;5036024;28;20560;-70
2022/12/23 04:08:16;;;;;;;0.60;0.60;;;;;;;10.23;100.00;95438.72;5036866;28;20717;-70
2022/12/23 04:10:42;;;;;;;0.30;0.30;;;;;;;10.13;100.00;95432.19;5037237;28;20252;-70
2022/12/23 04:13:08;;;;;;;1.70;0.50;;;;;;;10.20;100.00;95431.22;5036206;28;20221;-70
2022/12/23 04:15:39;;;;;;;0.50;0.50;;;;;;;10.23;100.00;95430.00;5035179;28;20209;-70
2022/12/23 04:18:08;;;;;;;0.87;0.60;;;;;;;10.25;100.00;95435.91;5036435;28;20668;-70
2022/12/23 04:20:35;;;;;;;0.50;0.50;;;;;;;10.16;100.00;95447.59;5036318;28;20200;-70
2022/12/23 04:23:01;;;;;;;2.57;0.97;;;;;;;10.18;100.00;95441.13;5035990;28;20278;-70
2022/12/23 04:25:28;;;;;;;0.60;0.57;;;;;;;10.16;100.00;95444.97;5036206;28;20205;-70
2022/12/23 04:27:54;;;;;;;3.03;0.80;;;;;;;10.20;100.00;95452.28;5036006;28;20275;-70
2022/12/23 04:30:20;;;;;;;0.30;0.30;;;;;;;10.26;100.00;95454.16;5035993;28;20567;-70
2022/12/23 04:32:47;;;;;;;0.47;0.47;;;;;;;10.13;100.00;95454.06;5036297;28;20296;-70
2022/12/23 04:35:15;;;;;;;0.87;0.63;;;;;;;10.30;100.00;95449.28;5035653;28;20201;-70
2022/12/23 04:37:41;;;;;;;3.70;0.70;;;;;;;10.26;100.00;95456.78;5035872;28;20221;-70
2022/12/23 04:40:08;;;;;;;1.30;0.60;;;;;;;10.15;100.00;95464.41;5036156;28;20212;-70
2022/12/23 04:42:35;;;;;;;0.70;0.60;;;;;;;10.20;100.00;95470.72;5036318;28;20201;-70
2022/12/23 04:45:02;;;;;;;0.80;0.60;;;;;;;10.11;100.00;95458.69;5034992;28;20193;-70
2022/12/23 04:47:29;;;;;;;0.63;0.60;;;;;;;10.15;100.00;95470.47;5036004;28;20201;-70
2022/12/23 04:49:55;;;;;;;0.50;0.50;;;;;;;10.17;100.00;95463.19;5035937;28;20211;-70
2022/12/23 04:52:23;;;;;;;0.90;0.80;;;;;;;10.29;100.00;95461.66;5036572;28;20212;-70
2022/12/23 04:54:49;;;;;;;1.43;1.00;;;;;;;10.26;100.00;95462.03;5035161;28;20297;-69
2022/12/23 04:57:16;;;;;;;0.93;0.70;;;;;;;10.22;100.00;95462.59;5036129;28;20213;-70
2022/12/23 04:59:43;;;;;;;1.20;1.00;;;;;;;10.20;100.00;95473.34;5036707;28;20220;-70
2022/12/23 05:02:10;;;;;;;1.97;0.80;;;;;;;10.13;100.00;95480.41;5036238;28;20205;-70
2022/12/23 05:04:36;;;;;;;2.30;1.23;;;;;;;10.23;100.00;95480.84;5033573;28;20613;-70
2022/12/23 05:07:03;;;;;;;3.00;1.60;;;;;;;10.25;100.00;95475.41;5036064;28;20205;-70
2022/12/23 05:09:30;;;;;;;1.30;0.80;;;;;;;10.38;100.00;95478.91;5035930;28;20217;-70
2022/12/23 05:11:57;;;;;;;0.80;0.80;;;;;;;10.32;100.00;95479.69;5035873;28;20212;-70
2022/12/23 05:14:23;;;;;;;1.50;0.77;;;;;;;10.30;100.00;95479.09;5035363;28;20208;-70
2022/12/23 05:16:50;;;;;;;0.70;0.70;;;;;;;10.36;100.00;95492.28;5035816;28;20204;-70
2022/12/23 05:19:16;;;;;;;2.37;0.90;;;;;;;10.40;100.00;95495.34;5034925;28;20336;-70
2022/12/23 05:21:43;;;;;;;1.13;1.00;;;;;;;10.41;100.00;95489.88;5036648;28;20201;-70
2022/12/23 05:24:09;;;;;;;2.47;1.10;;;;;;;10.39;100.00;95497.16;5034902;28;20662;-70
2022/12/23 05:26:37;;;;;;;1.87;0.77;;;;;;;10.45;100.00;95499.03;5035580;28;20201;-70
2022/12/23 05:29:04;;;;;;;1.67;1.30;;;;;;;10.41;100.00;95495.16;5035339;28;20221;-70
2022/12/23 05:31:30;;;;;;;1.20;1.00;;;;;;;10.34;100.00;95493.47;5035976;28;20205;-70
2022/12/23 05:33:57;;;;;;;1.50;1.03;;;;;;;10.40;100.00;95503.25;5034389;28;20260;-70
2022/12/23 05:36:23;;;;;;;9.70;3.73;;;;;;;10.37;100.00;95508.88;5035790;28;20212;-70
2022/12/23 05:38:50;;;;;;;3.43;1.60;;;;;;;10.40;100.00;95508.53;5035449;28;20232;-70
2022/12/23 05:41:16;;;;;;;5.00;2.33;;;;;;;10.36;100.00;95508.09;5035470;28;20205;-70
2022/12/23 05:43:44;;;;;;;0.87;0.60;;;;;;;10.49;100.00;95502.09;5036444;28;20205;-70
2022/12/23 05:46:10;;;;;;;2.80;1.50;;;;;;;10.43;100.00;95505.50;5039614;28;20208;-70
2022/12/23 05:48:37;;;;;;;4.33;1.20;;;;;;;10.40;100.00;95492.72;5039114;28;20634;-70
2022/12/23 05:51:04;;;;;;;1.73;1.17;;;;;;;10.46;100.00;95502.47;5039326;28;20212;-70
2022/12/23 05:53:30;;;;;;;6.47;0.80;;;;;;;10.44;100.00;95504.50;5038943;28;20275;-70
2022/12/23 05:55:57;;;;;;;0.80;0.80;;;;;;;10.36;100.00;95507.25;5038598;28;20205;-70
2022/12/23 05:58:24;;;;;;;0.73;0.73;;;;;;;10.38;100.00;95523.69;5038835;28;20225;-70
2022/12/23 06:00:51;;;;;;;0.70;0.60;;;;;;;10.49;100.00;95517.91;5039547;28;20201;-70
2022/12/23 06:03:18;;;;;;;0.80;0.70;;;;;;;10.39;100.00;95520.06;5038385;28;20208;-70
2022/12/23 06:05:44;;;;;;;1.60;0.90;;;;;;;10.46;100.00;95505.09;5038359;28;20197;-70
2022/12/23 06:08:11;;;;;;;2.57;1.40;;;;;;;10.45;100.00;95521.91;5038802;28;20213;-70
2022/12/23 06:10:37;;;;;;;2.13;1.10;;;;;;;10.48;100.00;95526.78;5039262;28;20221;-70
2022/12/23 06:13:04;;;;;;;1.00;0.80;;;;;;;10.44;100.00;95517.66;5038636;28;20971;-70
2022/12/23 06:15:30;;;;;;;3.03;1.03;;;;;;;10.50;100.00;95530.03;5038019;28;20197;-70
2022/12/23 06:17:58;;;;;;;6.03;2.63;;;;;;;10.61;100.00;95537.41;5038871;28;20315;-70
2022/12/23 06:20:24;;;;;;;2.97;1.40;;;;;;;10.57;100.00;95534.34;5038728;28;20209;-70
2022/12/23 06:22:51;;;;;;;1.40;1.00;;;;;;;10.63;100.00;95535.41;5038744;28;20206;-70
2022/12/23 06:25:17;;;;;;;1.30;1.10;;;;;;;10.65;100.00;95549.19;5038245;28;20206;-70
2022/12/23 06:27:44;;;;;;;3.70;1.20;;;;;;;10.65;100.00;95549.19;5038692;28;20471;-70
2022/12/23 06:30:11;;;;;;;4.07;1.40;;;;;;;10.67;100.00;95549.81;5038590;28;20197;-70
2022/12/23 06:32:38;;;;;;;2.37;1.07;;;;;;;10.66;100.00;95550.81;5038615;28;20197;-70
2022/12/23 06:35:07;;;;;;;1.93;0.80;;;;;;;10.76;100.00;95553.91;5038050;28;20209;-70
2022/12/23 06:37:34;;;;;;;1.10;1.00;;;;;;;10.72;100.00;95550.84;5038400;28;20201;-70
2022/12/23 06:40:00;;;;;;;1.50;1.00;;;;;;;10.71;100.00;95554.50;5038310;28;20274;-70
2022/12/23 06:42:27;;;;;;;2.40;0.87;;;;;;;10.74;100.00;95551.44;5038248;28;20205;-70
2022/12/23 06:44:53;;;;;;;4.33;1.40;;;;;;;10.72;100.00;95547.41;5037551;28;20661;-70
2022/12/23 06:47:20;;;;;;;1.43;0.77;;;;;;;10.69;100.00;95555.69;5038128;28;20220;-70
2022/12/23 06:49:46;;;;;;;2.20;0.83;;;;;;;10.71;100.00;95549.22;5038450;28;20224;-70
2022/12/23 06:52:14;;;;;;;0.80;0.70;;;;;;;10.74;100.00;95553.28;5037815;28;20621;-70
2022/12/23 06:54:40;;;;;;;3.60;0.80;;;;;;;10.71;100.00;95559.75;5037200;28;20684;-69
2022/12/23 06:57:07;;;;;;;1.10;0.70;;;;;;;10.64;100.00;95563.34;5038415;28;20224;-70
2022/12/23 06:59:33;;;;;;;1.33;1.00;;;;;;;10.73;100.00;95562.19;5037748;28;20229;-70
2022/12/23 07:02:00;;;;;;;1.40;1.30;;;;;;;10.70;100.00;95562.59;5037639;28;20209;-70
2022/12/23 07:04:26;;;;;;;1.63;1.00;;;;;;;10.68;100.00;95565.44;5037433;28;20205;-70
2022/12/23 07:06:53;;;;;;;1.20;0.90;;;;;;;10.70;100.00;95573.94;5037647;28;20980;-70
2022/12/23 07:09:20;;;;;;;1.60;1.07;;;;;;;10.87;100.00;95577.06;5037388;28;20225;-70
2022/12/23 07:11:47;;;;;;;1.27;0.90;;;;;;;10.66;100.00;95577.16;5037874;28;20205;-70
2022/12/23 07:14:13;;;;;;;1.90;1.10;;;;;;;10.62;100.00;95578.56;5037763;28;20201;-70
2022/12/23 07:16:40;;;;;;;2.07;1.30;;;;;;;10.73;100.00;95584.09;5038558;28;20216;-70
2022/12/23 07:19:06;;;;;;;2.13;1.20;;;;;;;10.62;100.00;95586.47;5038305;28;20221;-70
2022/12/23 07:21:33;;;;;;;3.17;1.40;;;;;;;10.70;100.00;95594.22;5038622;28;20205;-71
2022/12/23 07:23:59;;;;;;;2.03;1.10;;;;;;;10.66;100.00;95592.97;5037674;28;20236;-71
2022/12/23 07:26:27;;;;;;;5.63;1.60;;;;;;;10.73;100.00;95589.38;5038288;28;20212;-71
2022/12/23 07:28:54;;;;;;;1.70;1.23;;;;;;;10.70;100.00;95588.94;5038772;28;20227;-71
2022/12/23 07:31:20;;;;;;;2.90;1.70;;;;;;;10.66;100.00;95585.06;5038294;28;20201;-71
2022/12/23 07:33:46;;;;;;;2.03;1.30;;;;;;;10.73;100.00;95580.63;5037387;28;20729;-69
2022/12/23 07:36:13;;;;;;;2.77;1.50;;;;;;;10.76;100.00;95577.63;5038380;28;20205;-68
2022/12/23 07:38:40;;;;;;;3.03;1.43;;;;;;;10.72;100.00;95579.84;5037739;28;20229;-69
2022/12/23 07:41:06;;;;;;;1.50;1.23;;;;;;;10.77;100.00;95595.06;5037585;28;20197;-69
2022/12/23 07:43:34;;;;;;;3.13;1.17;;;;;;;10.90;100.00;95595.16;5038816;28;20201;-68
2022/12/23 07:46:06;;;;;;;2.90;1.30;;;;;;;10.91;100.00;95596.75;5037475;28;20692;-69
2022/12/23 07:48:32;;;;;;;1.27;1.00;;;;;;;10.70;100.00;95599.47;5037997;28;20217;-71
2022/12/23 07:51:00;;;;;;;1.77;1.40;;;;;;;10.85;100.00;95587.00;5037939;28;20201;-69
2022/12/23 07:53:26;;;;;;;2.07;1.60;;;;;;;10.78;100.00;95586.16;5037406;28;20197;-68
2022/12/23 07:55:53;;;;;;;1.77;1.50;;;;;;;10.81;100.00;95585.78;5037054;28;20211;-69
2022/12/23 07:58:19;;;;;;;4.03;1.50;;;;;;;10.80;100.00;95578.88;5037492;28;20233;-69
2022/12/23 08:00:47;;;;;;;2.73;1.17;;;;;;;10.88;100.00;95589.25;5037529;28;20282;-69
2022/12/23 08:03:14;;;;;;;3.37;2.23;;;;;;;10.78;100.00;95589.63;5037023;28;20688;-69
2022/12/23 08:05:40;;;;;;;3.93;1.77;;;;;;;10.86;100.00;95580.72;5036677;28;20669;-68
2022/12/23 08:08:07;;;;;;;3.03;1.80;;;;;;;10.82;100.00;95582.09;5036970;28;20231;-68
2022/12/23 08:10:33;;;;;;;4.50;2.20;;;;;;;10.93;100.00;95589.47;5036883;28;20201;-69
2022/12/23 08:13:00;;;;;;;4.73;2.37;;;;;;;10.88;100.00;95592.69;5037586;28;20658;-69
2022/12/23 08:15:26;;;;;;;6.63;2.37;;;;;;;10.88;100.00;95594.53;5036685;28;20197;-69
2022/12/23 08:17:56;;;;;;;5.63;2.53;;;;;;;11.06;100.00;95600.91;5037356;28;20981;-68
2022/12/23 08:20:22;;;;;;;5.07;1.80;;;;;;;10.97;100.00;95602.91;5037096;28;20225;-69
2022/12/23 08:22:48;;;;;;;2.97;2.10;;;;;;;10.93;100.00;95600.81;5037654;28;20201;-69
2022/12/23 08:25:15;;;;;;;7.23;2.17;;;;;;;10.98;100.00;95594.00;5037677;28;20201;-69
2022/12/23 08:27:41;;;;;;;3.73;1.80;;;;;;;11.16;100.00;95593.44;5036945;28;20201;-69
2022/12/23 08:30:09;;;;;;;5.03;2.67;;;;;;;11.26;100.00;95605.25;5036858;28;20677;-71
2022/12/23 08:32:36;;;;;;;7.73;3.00;;;;;;;11.13;100.00;95607.03;5036183;28;20216;-70
2022/12/23 08:35:04;;;;;;;9.17;4.20;;;;;;;11.20;100.00;95616.63;5036510;28;20208;-70
2022/12/23 08:37:33;;;;;;;4.57;2.63;;;;;;;11.27;100.00;95621.91;5037467;28;20208;-70
2022/12/23 08:40:00;;;;;;;4.10;2.60;;;;;;;11.11;100.00;95625.69;5036708;28;20225;-70
2022/12/23 08:42:26;;;;;;;2.17;1.60;;;;;;;11.13;100.00;95633.41;5037204;28;20208;-70
2022/12/23 08:44:53;;;;;;;10.53;2.30;;;;;;;11.14;100.00;95629.75;5036961;28;20197;-70
2022/12/23 08:47:19;;;;;;;4.63;2.27;;;;;;;11.16;100.00;95635.63;5036252;28;20209;-70
2022/12/23 08:49:47;;;;;;;5.33;2.80;;;;;;;11.23;100.00;95639.94;5035621;28;20221;-70
2022/12/23 08:52:17;;;;;;;3.93;2.23;;;;;;;11.17;100.00;95635.44;5036379;28;20211;-71
2022/12/23 08:54:44;;;;;;;5.33;2.40;;;;;;;11.11;100.00;95635.41;5036332;28;20197;-70
2022/12/23 08:57:10;;;;;;;5.77;2.70;;;;;;;11.12;100.00;95629.13;5035963;28;20212;-70
2022/12/23 08:59:37;;;;;;;5.83;2.87;;;;;;;11.14;100.00;95632.41;5036078;28;20224;-70
2022/12/23 09:02:04;;;;;;;9.30;3.50;;;;;;;11.13;100.00;95628.94;5035818;28;20205;-70
2022/12/23 09:04:30;;;;;;;4.40;2.40;;;;;;;11.08;100.00;95631.34;5035415;28;20578;-70
2022/12/23 09:06:57;;;;;;;3.27;2.60;;;;;;;11.09;100.00;95627.69;5036410;28;20212;-69
2022/12/23 09:09:24;;;;;;;4.33;2.40;;;;;;;11.23;100.00;95631.22;5036661;28;20228;-70
2022/12/23 09:11:51;;;;;;;5.23;2.60;;;;;;;11.15;100.00;95631.38;5036335;28;20213;-70
2022/12/23 09:14:17;;;;;;;4.20;2.83;;;;;;;11.24;100.00;95624.91;5035587;28;20930;-70
2022/12/23 09:16:44;;;;;;;5.57;3.10;;;;;;;11.24;100.00;95624.91;5036106;28;20201;-70
2022/12/23 09:19:11;;;;;;;5.70;2.50;;;;;;;11.26;100.00;95626.34;5037552;28;20229;-70
2022/12/23 09:21:37;;;;;;;5.37;2.17;;;;;;;11.33;100.00;95637.78;5040418;28;20918;-70
2022/12/23 09:24:04;;;;;;;9.07;2.63;;;;;;;11.44;100.00;95631.13;5039974;28;20789;-70
2022/12/23 09:26:32;;;;;;;7.67;2.33;;;;;;;11.33;100.00;95627.22;5040485;28;20201;-71
2022/12/23 09:28:59;;;;;;;4.87;2.50;;;;;;;11.30;100.00;95629.44;5039975;28;20232;-70
2022/12/23 09:31:26;;;;;;;4.30;1.83;;;;;;;11.38;100.00;95622.16;5040320;28;20205;-70
2022/12/23 09:33:54;;;;;;;7.33;2.20;;;;;;;11.44;100.00;95613.44;5039742;28;20201;-70
2022/12/23 09:36:21;;;;;;;4.43;1.07;;;;;;;11.38;100.00;95621.34;5040624;28;20205;-70
2022/12/23 09:38:47;;;;;;;4.40;1.40;;;;;;;11.50;100.00;95620.63;5039994;28;20253;-70
2022/12/23 09:41:26;;;;;;;3.03;1.90;;;;;;;11.59;100.00;95614.16;5039884;28;20212;-70
2022/12/23 09:44:07;;;;;;;2.93;1.40;;;;;;;11.62;100.00;95621.66;5039307;28;20681;-70
2022/12/23 09:46:38;;;;;;;3.67;1.73;;;;;;;11.62;100.00;95619.03;5039668;28;20201;-70
2022/12/23 09:49:10;;;;;;;3.20;1.43;;;;;;;11.72;100.00;95624.75;5039922;28;20225;-70
2022/12/23 09:51:37;;;;;;;4.00;1.90;;;;;;;11.54;100.00;95621.84;5040544;28;20589;-70
2022/12/23 09:54:11;;;;;;;4.40;1.80;;;;;;;11.61;100.00;95623.50;5039120;28;20208;-70
2022/12/23 09:56:47;;;;;;;5.03;2.10;;;;;;;11.66;100.00;95615.00;5040153;28;20233;-70
2022/12/23 09:59:28;;;;;;;4.80;1.60;;;;;;;11.73;100.00;95619.25;5039665;28;20236;-70
2022/12/23 10:02:00;;;;;;;3.77;2.03;;;;;;;11.69;100.00;95617.25;5039963;28;20209;-70
2022/12/23 10:04:39;;;;;;;2.43;1.30;;;;;;;11.73;100.00;95614.00;5039263;28;20197;-70
2022/12/23 10:07:24;;;;;;;3.50;1.77;;;;;;;11.73;100.00;95614.00;5039473;28;21274;-70
2022/12/23 10:09:54;;;;;;;4.07;2.20;;;;;;;11.71;100.00;95602.84;5040055;28;20217;-72
2022/12/23 10:12:29;;;;;;;2.20;1.63;;;;;;;11.76;100.00;95605.69;5039597;28;20212;-72
2022/12/23 10:15:00;;;;;;;4.50;1.80;;;;;;;11.75;100.00;95609.34;5038551;28;20197;-72
2022/12/23 10:17:30;;;;;;;4.43;2.20;;;;;;;11.77;100.00;95606.50;5039614;28;20205;-71
2022/12/23 10:20:02;;;;;;;4.37;2.03;;;;;;;11.85;100.00;95616.88;5039532;28;20232;-72
2022/12/23 10:22:36;;;;;;;2.90;1.83;;;;;;;11.82;100.00;95604.88;5039723;28;20236;-72
2022/12/23 10:25:07;;;;;;;2.57;1.80;;;;;;;11.79;100.00;95607.91;5038917;28;20212;-71
2022/12/23 10:27:38;;;;;;;2.43;1.80;;;;;;;11.73;100.00;95602.63;5039037;28;20208;-72
2022/12/23 10:30:13;;;;;;;5.03;2.07;;;;;;;11.76;100.00;95603.06;5039496;28;21217;-71
2022/12/23 10:32:50;;;;;;;3.77;1.67;;;;;;;11.74;100.00;95604.25;5040035;28;20212;-71
2022/12/23 10:35:34;;;;;;;3.33;2.00;;;;;;;11.83;100.00;95598.59;5038251;28;20232;-71
2022/12/23 10:38:11;;;;;;;4.77;2.10;;;;;;;11.85;100.00;95587.81;5038890;28;20607;-71
2022/12/23 10:40:47;;;;;;;2.83;2.03;;;;;;;11.85;100.00;95578.09;5039391;28;21136;-71
2022/12/23 10:43:22;;;;;;;8.93;2.13;;;;;;;11.77;100.00;95574.81;5038744;28;20205;-71
2022/12/23 10:46:00;;;;;;;6.23;2.20;;;;;;;11.86;100.00;95573.63;5038821;28;20216;-71
2022/12/23 10:48:49;;;;;;;4.80;2.10;;;;;;;11.77;100.00;95578.28;5038612;28;20237;-71
2022/12/23 10:51:19;;;;;;;3.30;2.10;;;;;;;11.77;100.00;95580.09;5039284;28;20212;-71
2022/12/23 10:53:51;;;;;;;7.33;2.27;;;;;;;11.75;100.00;95567.09;5038451;28;20208;-71
2022/12/23 10:56:19;;;;;;;6.23;2.70;;;;;;;11.70;100.00;95563.44;5038566;28;20209;-71
2022/12/23 10:58:49;;;;;;;6.07;3.23;;;;;;;11.67;100.00;95566.47;5038943;28;20217;-71
2022/12/23 11:01:19;;;;;;;5.90;2.97;;;;;;;11.89;100.00;95566.13;5038314;28;20824;-71
2022/12/23 11:03:55;;;;;;;6.47;2.30;;;;;;;11.88;100.00;95561.03;5038060;28;20201;-71
2022/12/23 11:06:22;;;;;;;2.57;1.80;;;;;;;11.72;100.00;95546.41;5038766;28;20216;-71
2022/12/23 11:08:50;;;;;;;4.20;2.40;;;;;;;11.77;100.00;95553.72;5038977;28;20217;-71
2022/12/23 11:11:16;;;;;;;3.37;2.20;;;;;;;11.71;100.00;95555.31;5038277;28;20206;-71
2022/12/23 11:13:45;;;;;;;6.93;2.50;;;;;;;11.98;100.00;95545.63;5038081;28;21129;-71
2022/12/23 11:16:15;;;;;;;3.93;2.13;;;;;;;11.98;100.00;95543.00;5038841;28;20193;-71
2022/12/23 11:18:59;;;;;;;4.47;2.57;;;;;;;12.13;100.00;95538.31;5038259;28;20689;-71
2022/12/23 11:21:26;;;;;;;4.73;2.83;;;;;;;12.01;100.00;95540.72;5038316;28;20228;-71
2022/12/23 11:24:15;;;;;;;6.70;3.00;;;;;;;12.14;100.00;95545.22;5038233;28;20202;-71
2022/12/23 11:26:42;;;;;;;6.40;3.93;;;;;;;12.02;100.00;95546.84;5038230;28;20236;-71
2022/12/23 11:29:12;;;;;;;8.53;3.63;;;;;;;12.16;100.00;95537.91;5038576;28;20228;-71
2022/12/23 11:31:41;;;;;;;8.90;5.43;;;;;;;12.05;100.00;95533.22;5038884;28;20205;-71
2022/12/23 11:34:16;;;;;;;9.27;5.57;;;;;;;12.16;100.00;95538.72;5037442;28;20201;-71
2022/12/23 11:36:43;;;;;;;5.40;3.10;;;;;;;12.07;100.00;95529.38;5037425;28;20200;-71
2022/12/23 11:39:22;;;;;;;6.13;3.07;;;;;;;12.23;100.00;95528.94;5038626;28;21511;-71
2022/12/23 11:41:52;;;;;;;4.57;2.97;;;;;;;12.20;100.00;95530.16;5037761;28;20211;-71
2022/12/23 11:44:22;;;;;;;4.37;2.30;;;;;;;12.32;100.00;95519.81;5037209;28;20205;-72
2022/12/23 11:46:50;;;;;;;14.73;7.97;;;;;;;12.23;100.00;95521.03;5038306;28;20201;-72
2022/12/23 11:49:20;;;;;;;14.73;7.87;;;;;;;12.13;100.00;95520.66;5037950;28;20251;-72
2022/12/23 11:51:58;;;;;;;6.60;4.30;;;;;;;12.28;100.00;95511.50;5037623;28;20717;-72
2022/12/23 11:54:25;;;;;;;14.43;3.00;;;;;;;12.19;100.00;95502.16;5037396;28;20220;-72
2022/12/23 11:56:53;;;;;;;10.33;3.37;;;;;;;12.13;100.00;95502.16;5037423;28;20209;-72
2022/12/23 11:59:30;;;;;;;10.77;3.60;;;;;;;12.27;100.00;95504.59;5037352;28;20225;-72
2022/12/23 12:01:59;;;;;;;6.00;2.57;;;;;;;12.26;100.00;95491.59;5038033;28;20206;-71
2022/12/23 12:04:31;;;;;;;30.07;6.10;;;;;;;12.26;100.00;95497.66;5037052;28;20205;-71
2022/12/23 12:06:59;;;;;;;5.53;2.47;;;;;;;12.20;100.00;95487.09;5036791;28;20224;-71